aviador You're here:

KELN Decoded Metar

ELLENSBURG in WA, USA
Report Time2017-10-17 19:53:00
UTC Time2017-10-17 20:21:43
Flight Rules vfr VFR
Wind310° at 35 Gusting to 48 kt
W.Decomp.*RWY 29: 34.9 kt HW 2.4 kt RCW
RWY 25: 25.2 kt HW 24.3 kt RCW
W.Rank310° ranks 1
Current wind is above 310° avg. (14.5)
Visibility9999 m
Phenomena:Light Rain
Clouds:Few 060 Hf
Expected CloudBase > 4,000 ft AGL from Temp-Dew spread
CeilingNone
Temp16°C (ISA +4)
Dew Point06°C (52% RH)
AAT2.5°C
QNH1012 hPa
Density Alt2,385 ft
Elevation1,703 ft
Report Wrong Elevation
Raw Report
METAR KELN 171953Z AUTO 31035G48KT 10SM -RA FEW060 16/06 A2987 RMK
AO2 PK WND 31048/1947 RAB07 SLP118 P0000 T01610061=

Extra information for KELN:More info

Metar Taf Metar & Taf Last 4 Metars F.Rules Stats Wind Profile Meteogram Temp Stats Airport Information Weather charts Add Link Nearby VenuesMetar ALERT Operation Metar Decoded Social comments

AIRNAV info for KELN